Information Last Ob Photographs Meteogram Network Table Neighbors Monthly Summaries Observation History Wind Roses Custom Wind Roses Data Calendar Satellite Cloud Product Download

Most Recent Observation

This application displays the last observation received by the IEM from this site. The time stamp is in America/Chicago timezone.

Observation Local Time15 Apr 2024, 3:30 AM
Observation UTC Time2024-04-15T08:30:00Z
Air Temp [F]69.4
Maximum Air Temperature [F]71
Minimum Air Temperature [F]69.4
Dew Point [F]66
Wind DirectionS (170 degrees)
Wind Speed [knots]7
Altimeter [inches]29.92
Raw Observation/ProductKRWV 150830Z AUTO 17007KT 10SM OVC019 21/19 A2992 RMK AO2 T02080189
Cloud Layer 1: OVC (1900 feet)

This data was provided by a JSON(P) webservice. You can find more JSON services.